Time;durP1;ratioP1;P1;durP2;ratioP2;P2;SDS_P1;SDS_P2;PMS_P1;PMS_P2;Temp;Humidity;BMP_temperature;BMP_pressure;BME280_temperature;BME280_humidity;BME280_pressure;Samples;Min_cycle;Max_cycle;Signal;HPM_P1;HPM_P2
2021/01/22 00:01:28;;;;;;;;;93.25;71.00;;;;;-2.25;85.22;101077.22;3725884;38;18194;-65
2021/01/22 00:03:54;;;;;;;;;87.50;67.50;;;;;-2.27;85.32;101068.50;3725796;38;18190;-65
2021/01/22 00:06:21;;;;;;;;;97.50;70.00;;;;;-2.25;85.31;101077.22;3725907;37;18208;-66
2021/01/22 00:08:47;;;;;;;;;94.75;72.50;;;;;-2.29;84.97;101073.03;3725707;37;18208;-66
2021/01/22 00:11:14;;;;;;;;;100.50;72.00;;;;;-2.43;85.10;101044.66;3725971;38;18175;-66
2021/01/22 00:13:41;;;;;;;;;96.50;70.75;;;;;-2.19;85.67;101075.06;3725736;38;18181;-66
2021/01/22 00:16:07;;;;;;;;;95.75;71.50;;;;;-2.15;85.52;101062.47;3725835;38;18170;-65
2021/01/22 00:18:33;;;;;;;;;91.25;68.75;;;;;-2.12;85.50;101072.91;3725829;38;18200;-64
2021/01/22 00:20:59;;;;;;;;;92.75;69.75;;;;;-2.07;85.39;101069.00;3725867;37;18185;-64
2021/01/22 00:23:27;;;;;;;;;83.25;64.25;;;;;-2.11;85.34;101062.22;3725685;37;18161;-66
2021/01/22 00:25:54;;;;;;;;;91.50;68.50;;;;;-2.12;85.46;101063.16;3725769;37;18180;-65
2021/01/22 00:28:20;;;;;;;;;89.00;65.25;;;;;-2.35;84.99;101032.69;3725815;37;18170;-65
2021/01/22 00:30:46;;;;;;;;;86.50;63.25;;;;;-2.18;85.42;101067.97;3725910;37;18241;-64
2021/01/22 00:33:12;;;;;;;;;89.50;66.75;;;;;-2.22;85.61;101043.44;3725684;38;18175;-65
2021/01/22 00:35:39;;;;;;;;;91.25;70.00;;;;;-2.08;85.45;101048.75;3726079;38;18142;-64
2021/01/22 00:38:05;;;;;;;;;96.00;70.25;;;;;-2.15;85.34;101050.06;3725881;38;18136;-65
2021/01/22 00:40:31;;;;;;;;;86.25;67.75;;;;;-2.15;85.42;101044.78;3725981;37;18156;-65
2021/01/22 00:42:58;;;;;;;;;83.50;65.00;;;;;-2.13;85.37;101050.00;3725760;38;18162;-65
2021/01/22 00:45:24;;;;;;;;;94.25;66.50;;;;;-2.06;85.36;101041.53;3725853;38;18161;-64
2021/01/22 00:47:50;;;;;;;;;92.25;68.25;;;;;-2.04;85.45;101041.47;3725933;38;18137;-65
2021/01/22 00:50:17;;;;;;;;;90.00;66.25;;;;;-2.07;85.53;101039.00;3725661;38;18147;-65
2021/01/22 00:52:43;;;;;;;;;93.50;67.00;;;;;-2.16;85.13;101031.59;3725852;38;18146;-65
2021/01/22 00:55:10;;;;;;;;;88.50;65.25;;;;;-2.07;85.68;101034.53;3726025;38;18120;-65
2021/01/22 00:57:36;;;;;;;;;86.25;66.50;;;;;-2.02;85.58;101027.16;3725855;37;20381;-65
2021/01/22 01:00:06;;;;;;;;;87.75;65.75;;;;;-1.93;85.74;101040.81;3725168;38;20394;-64
2021/01/22 01:02:32;;;;;;;;;83.25;62.25;;;;;-1.98;85.66;101025.19;3725420;37;20351;-65
2021/01/22 01:04:58;;;;;;;;;84.00;62.00;;;;;-1.92;85.51;101032.78;3725487;38;20361;-66
2021/01/22 01:07:24;;;;;;;;;90.00;65.50;;;;;-1.97;85.11;101026.87;3725859;38;20390;-65
2021/01/22 01:09:50;;;;;;;;;88.25;64.25;;;;;-2.05;85.42;101024.69;3725910;38;18108;-66
2021/01/22 01:12:17;;;;;;;;;82.25;62.00;;;;;-2.02;85.88;101007.75;3725671;38;18113;-67
2021/01/22 01:14:43;;;;;;;;;87.25;65.75;;;;;-1.92;85.59;101022.16;3726053;37;20358;-65
2021/01/22 01:17:09;;;;;;;;;82.00;63.75;;;;;-2.00;85.34;101003.19;3726079;38;18113;-64
2021/01/22 01:19:35;;;;;;;;;86.00;64.25;;;;;-2.01;85.27;101010.31;3725745;37;20339;-66
2021/01/22 01:22:02;;;;;;;;;84.25;63.50;;;;;-1.94;85.21;101015.25;3725862;37;20365;-65
2021/01/22 01:24:28;;;;;;;;;81.00;61.75;;;;;-2.00;85.34;101024.41;3725832;37;20329;-65
2021/01/22 01:26:54;;;;;;;;;78.75;61.00;;;;;-2.02;85.45;101013.91;3725972;37;18080;-65
2021/01/22 01:29:20;;;;;;;;;78.75;60.75;;;;;-2.03;85.51;101014.00;3725834;38;20339;-67
2021/01/22 01:31:47;;;;;;;;;85.00;62.75;;;;;-2.16;85.73;100991.84;3725778;37;20340;-65
2021/01/22 01:34:14;;;;;;;;;86.00;63.50;;;;;-2.01;85.35;101006.81;3725872;38;20334;-65
2021/01/22 01:36:40;;;;;;;;;85.00;63.00;;;;;-2.00;85.51;101000.56;3725823;38;20330;-65
2021/01/22 01:39:06;;;;;;;;;85.75;66.00;;;;;-2.13;85.40;100989.84;3725887;38;20326;-65
2021/01/22 01:41:33;;;;;;;;;85.00;61.50;;;;;-2.06;85.73;101006.22;3725829;37;20336;-65
2021/01/22 01:43:59;;;;;;;;;87.50;62.75;;;;;-1.99;85.81;101007.56;3725780;37;20315;-64
2021/01/22 01:46:25;;;;;;;;;91.50;68.25;;;;;-1.92;85.90;101003.59;3725915;37;20324;-64
2021/01/22 01:48:52;;;;;;;;;87.50;68.50;;;;;-1.88;85.65;101009.56;3725956;37;18055;-65
2021/01/22 01:51:19;;;;;;;;;92.75;66.00;;;;;-1.95;85.65;101011.72;3725891;37;18070;-64
2021/01/22 01:53:45;;;;;;;;;93.25;70.75;;;;;-2.00;85.75;100998.75;3725700;38;18060;-66
2021/01/22 01:56:12;;;;;;;;;87.25;64.00;;;;;-1.93;85.64;101025.75;3725863;37;18060;-64
2021/01/22 01:58:38;;;;;;;;;82.50;64.75;;;;;-1.96;85.76;101020.63;3725809;37;20315;-67
2021/01/22 02:01:06;;;;;;;;;82.00;64.75;;;;;-1.98;85.76;101019.87;3725773;37;20288;-65
2021/01/22 02:03:32;;;;;;;;;82.50;62.00;;;;;-2.09;85.58;100999.34;3725954;37;20285;-65
2021/01/22 02:05:58;;;;;;;;;78.25;58.00;;;;;-2.04;85.56;101004.31;3725683;37;20306;-65
2021/01/22 02:08:25;;;;;;;;;85.00;62.75;;;;;-1.95;85.79;101010.88;3725738;37;20274;-66
2021/01/22 02:10:53;;;;;;;;;82.75;61.00;;;;;-2.00;85.83;101000.56;3725736;37;20298;-65
2021/01/22 02:13:20;;;;;;;;;78.50;60.00;;;;;-1.84;85.74;101014.59;3725734;38;20289;-64
2021/01/22 02:15:49;;;;;;;;;73.25;56.00;;;;;-1.85;85.75;101018.19;3725766;37;20293;-65
2021/01/22 02:18:16;;;;;;;;;80.25;58.00;;;;;-2.05;85.73;100976.09;3725850;37;20288;-65
2021/01/22 02:21:19;;;;;;;;;73.00;56.25;;;;;-1.83;85.60;101012.78;3725811;38;20282;-65
2021/01/22 02:23:46;;;;;;;;;76.75;56.50;;;;;-1.97;85.48;100984.44;3725965;38;20274;-66
2021/01/22 02:26:53;;;;;;;;;78.75;61.00;;;;;-1.96;85.50;100988.81;3725826;38;20278;-66
2021/01/22 02:29:21;;;;;;;;;89.25;64.75;;;;;-1.88;85.58;101015.72;3725864;38;20235;-65
2021/01/22 02:31:51;;;;;;;;;74.00;60.00;;;;;-2.02;85.09;101013.03;3725970;38;20274;-66
2021/01/22 02:34:30;;;;;;;;;71.75;57.75;;;;;-2.16;85.26;100997.13;3725964;37;20230;-66
2021/01/22 02:37:01;;;;;;;;;76.00;58.00;;;;;-2.27;85.44;100971.25;3726006;38;20416;-66
2021/01/22 02:39:36;;;;;;;;;80.50;61.50;;;;;-2.23;85.45;100975.44;3726018;37;20258;-65
2021/01/22 02:42:05;;;;;;;;;80.25;60.25;;;;;-2.03;85.49;101004.25;3726110;37;20254;-66
2021/01/22 02:44:32;;;;;;;;;80.25;61.75;;;;;-2.04;85.63;101004.31;3725783;38;20234;-67
2021/01/22 02:47:00;;;;;;;;;78.00;60.50;;;;;-2.03;85.73;101011.34;3726036;37;20250;-66
2021/01/22 02:49:26;;;;;;;;;78.50;57.50;;;;;-2.10;85.43;101010.03;3725998;37;20233;-65
2021/01/22 02:51:52;;;;;;;;;81.50;60.75;;;;;-2.19;85.50;101006.13;3725857;37;20204;-66
2021/01/22 02:54:18;;;;;;;;;72.25;57.00;;;;;-2.18;85.49;101012.28;3726029;38;20195;-67
2021/01/22 02:56:57;;;;;;;;;71.50;56.75;;;;;-2.12;85.80;101011.91;3725961;37;20233;-66
2021/01/22 02:59:47;;;;;;;;;76.75;57.25;;;;;-2.08;85.81;101006.31;3725983;37;20195;-65
2021/01/22 03:02:39;;;;;;;;;68.00;54.75;;;;;-2.12;85.61;101014.56;3725946;38;20220;-67
2021/01/22 03:05:07;;;;;;;;;77.25;59.75;;;;;-2.15;85.60;100999.69;3725869;37;20200;-66
2021/01/22 03:08:05;;;;;;;;;79.25;62.00;;;;;-2.16;85.55;101013.91;3725892;38;20206;-67
2021/01/22 03:10:33;;;;;;;;;77.75;60.25;;;;;-2.26;85.22;101009.22;3725860;38;20191;-66
2021/01/22 03:13:01;;;;;;;;;72.75;56.50;;;;;-2.34;85.48;101009.69;3725821;37;20194;-67
2021/01/22 03:15:28;;;;;;;;;78.00;59.00;;;;;-2.38;85.29;101010.81;3725942;38;20206;-67
2021/01/22 03:18:17;;;;;;;;;79.50;60.75;;;;;-2.35;85.79;101011.47;3725887;37;20172;-66
2021/01/22 03:20:46;;;;;;;;;85.75;61.00;;;;;-2.44;85.12;101012.00;3726055;38;20205;-65
2021/01/22 03:23:13;;;;;;;;;78.75;61.00;;;;;-2.53;85.53;101003.75;3726243;37;20204;-66
2021/01/22 03:25:41;;;;;;;;;79.50;61.00;;;;;-2.55;85.33;101003.84;3725714;38;20172;-68
2021/01/22 03:28:09;;;;;;;;;79.00;59.25;;;;;-2.65;85.73;100981.50;3725915;37;20170;-66
2021/01/22 03:30:35;;;;;;;;;76.00;59.50;;;;;-2.53;85.62;101001.94;3725908;38;20171;-66
2021/01/22 03:33:04;;;;;;;;;76.25;61.00;;;;;-2.53;85.59;101004.59;3725924;37;20181;-68
2021/01/22 03:35:31;;;;;;;;;72.25;54.75;;;;;-2.58;85.59;101006.66;3726086;37;20182;-68
2021/01/22 03:37:58;;;;;;;;;83.00;60.75;;;;;-2.60;85.63;101008.56;3725964;37;20185;-66
2021/01/22 03:40:25;;;;;;;;;89.25;64.50;;;;;-2.56;85.38;101011.88;3725823;38;20157;-68
2021/01/22 03:42:52;;;;;;;;;94.75;68.25;;;;;-2.55;85.44;101009.13;3726077;37;20177;-68
2021/01/22 03:45:18;;;;;;;;;79.00;58.50;;;;;-2.56;85.66;101012.72;3726036;37;20156;-67
2021/01/22 03:47:45;;;;;;;;;79.00;59.00;;;;;-2.66;85.75;100990.38;3725942;37;20159;-67
2021/01/22 03:50:11;;;;;;;;;86.75;64.00;;;;;-2.59;85.44;101012.91;3726060;38;20149;-66
2021/01/22 03:52:38;;;;;;;;;87.25;64.50;;;;;-2.63;85.21;101011.41;3725922;37;20157;-67
2021/01/22 03:55:06;;;;;;;;;87.50;63.25;;;;;-2.73;85.44;101000.47;3725845;37;20122;-69
2021/01/22 03:57:33;;;;;;;;;83.00;59.25;;;;;-2.66;85.46;101016.87;3725929;38;20134;-69
2021/01/22 03:59:59;;;;;;;;;77.50;58.00;;;;;-2.51;86.16;101015.97;3725830;37;20128;-69
2021/01/22 04:02:25;;;;;;;;;85.50;66.00;;;;;-2.53;85.44;101017.00;3726076;38;20452;-70
2021/01/22 04:04:52;;;;;;;;;80.50;58.25;;;;;-2.74;85.07;101000.56;3726091;38;20112;-67
2021/01/22 04:07:18;;;;;;;;;84.50;59.00;;;;;-2.72;85.18;101011.94;3726302;37;20264;-67
2021/01/22 04:09:44;;;;;;;;;91.50;64.50;;;;;-2.76;85.50;101013.03;3726050;38;20118;-66
2021/01/22 04:12:11;;;;;;;;;80.00;60.75;;;;;-2.77;85.65;101017.50;3726068;37;20117;-66
2021/01/22 04:14:37;;;;;;;;;80.50;60.00;;;;;-2.73;85.60;101018.16;3725933;37;20123;-68
2021/01/22 04:17:03;;;;;;;;;87.75;61.75;;;;;-2.76;85.55;101011.25;3726021;37;20105;-67
2021/01/22 04:19:29;;;;;;;;;72.75;55.75;;;;;-2.71;85.86;101016.28;3725973;38;20098;-68
2021/01/22 04:21:57;;;;;;;;;67.00;51.25;;;;;-2.75;85.64;101014.75;3726114;38;20093;-68
2021/01/22 04:24:23;;;;;;;;;74.50;54.75;;;;;-2.79;85.65;101010.56;3725434;38;20123;-68
2021/01/22 04:26:51;;;;;;;;;74.75;58.00;;;;;-2.93;85.34;100995.44;3726111;37;20093;-68
2021/01/22 04:29:18;;;;;;;;;75.75;58.50;;;;;-2.82;85.42;101008.94;3726185;38;20090;-68
2021/01/22 04:31:44;;;;;;;;;79.00;57.25;;;;;-2.87;85.45;100995.09;3726231;38;20103;-68
2021/01/22 04:34:11;;;;;;;;;81.50;59.25;;;;;-2.81;85.38;101002.72;3726096;37;20069;-67
2021/01/22 04:36:37;;;;;;;;;83.50;59.50;;;;;-2.81;85.37;101008.00;3726029;37;20078;-67
2021/01/22 04:39:05;;;;;;;;;69.25;51.25;;;;;-2.78;85.48;101010.47;3726018;38;20099;-67
2021/01/22 04:41:31;;;;;;;;;74.25;49.25;;;;;-2.76;85.68;100994.50;3726208;38;20081;-68
2021/01/22 04:44:00;;;;;;;;;77.50;57.50;;;;;-2.78;85.53;101002.53;3726213;37;20080;-66
2021/01/22 04:46:27;;;;;;;;;78.00;58.25;;;;;-2.90;85.20;100997.06;3726108;38;20054;-67
2021/01/22 04:48:54;;;;;;;;;74.75;53.00;;;;;-2.87;85.65;101004.84;3726078;37;20057;-66
2021/01/22 04:51:24;;;;;;;;;83.50;60.25;;;;;-2.84;85.79;101004.69;3725905;37;20061;-68
2021/01/22 04:53:55;;;;;;;;;80.50;58.50;;;;;-2.83;85.57;100998.44;3725956;37;20073;-67
2021/01/22 04:56:26;;;;;;;;;81.00;59.00;;;;;-2.80;85.55;100988.53;3726154;37;20062;-66
2021/01/22 04:58:56;;;;;;;;;76.00;56.00;;;;;-2.77;85.85;100992.78;3727464;37;20071;-66
2021/01/22 05:01:23;;;;;;;;;68.75;53.25;;;;;-2.83;85.40;100969.31;3725984;37;20061;-67
2021/01/22 05:03:50;;;;;;;;;63.00;49.75;;;;;-2.84;85.54;100970.25;3726240;38;20028;-70
2021/01/22 05:06:16;;;;;;;;;85.00;64.25;;;;;-2.89;85.68;100967.00;3725895;37;20042;-66
2021/01/22 05:08:42;;;;;;;;;83.00;64.00;;;;;-2.77;85.57;100974.25;3726090;37;20152;-65
2021/01/22 05:11:08;;;;;;;;;91.00;70.25;;;;;-2.78;85.68;100969.91;3726180;37;17768;-65
2021/01/22 05:13:37;;;;;;;;;79.25;60.50;;;;;-2.71;85.65;100976.53;3726235;37;17771;-67
2021/01/22 05:16:14;;;;;;;;;79.75;60.75;;;;;-2.74;85.76;100972.28;3726075;38;20038;-65
2021/01/22 05:18:40;;;;;;;;;74.00;55.75;;;;;-2.66;85.81;100982.44;3725983;37;20020;-68
2021/01/22 05:21:11;;;;;;;;;77.00;58.00;;;;;-2.68;85.53;100973.72;3726051;38;20032;-68
2021/01/22 05:23:39;;;;;;;;;80.75;61.50;;;;;-2.71;85.63;100963.31;3726107;38;20026;-66
2021/01/22 05:26:08;;;;;;;;;82.00;60.25;;;;;-2.71;85.40;100969.44;3726147;38;17752;-66
2021/01/22 05:28:37;;;;;;;;;80.50;58.00;;;;;-2.65;85.54;100970.91;3726097;37;20004;-67
2021/01/22 05:31:05;;;;;;;;;77.75;61.25;;;;;-2.64;85.58;100977.03;3726157;37;20022;-67
2021/01/22 05:33:31;;;;;;;;;85.75;62.50;;;;;-2.67;85.65;100970.97;3726051;37;19984;-68
2021/01/22 05:35:58;;;;;;;;;87.50;65.25;;;;;-2.78;85.50;100946.06;3725677;37;20007;-66
2021/01/22 05:38:39;;;;;;;;;88.00;68.50;;;;;-2.60;85.54;100966.19;3725966;38;17758;-66
2021/01/22 05:41:08;;;;;;;;;90.75;65.50;;;;;-2.86;85.77;100925.31;3726591;37;17762;-71
2021/01/22 05:43:36;;;;;;;;;92.25;68.25;;;;;-2.52;85.40;100969.22;3731044;37;17754;-64
2021/01/22 05:46:04;;;;;;;;;92.25;69.25;;;;;-2.51;85.62;100970.91;3725877;37;20007;-66
2021/01/22 05:48:30;;;;;;;;;84.75;65.50;;;;;-2.50;85.42;100963.81;3726165;37;17727;-66
2021/01/22 05:50:58;;;;;;;;;99.25;74.50;;;;;-2.53;85.34;100969.28;3726354;37;17732;-66
2021/01/22 05:53:26;;;;;;;;;126.50;108.00;;;;;-2.52;85.38;100971.00;3726216;37;17742;-67
2021/01/22 05:56:12;;;;;;;;;162.50;132.00;;;;;-2.53;85.44;100964.00;3726017;38;17742;-67
2021/01/22 05:58:40;;;;;;;;;159.25;119.00;;;;;-2.45;85.55;100970.56;3726082;38;17719;-67
2021/01/22 06:01:14;;;;;;;;;118.75;98.25;;;;;-2.44;85.61;100943.09;3726049;38;17732;-67
2021/01/22 06:03:44;;;;;;;;;132.00;114.50;;;;;-2.27;85.94;100960.66;3726035;37;17710;-66
2021/01/22 06:06:10;;;;;;;;;138.00;114.00;;;;;-2.32;85.53;100954.78;3726798;38;17719;-66
2021/01/22 06:08:51;;;;;;;;;140.00;118.50;;;;;-2.29;85.29;100961.69;3726932;37;17718;-67
2021/01/22 06:11:22;;;;;;;;;143.75;120.75;;;;;-2.48;85.47;100938.94;3726760;37;17714;-68
2021/01/22 06:13:50;;;;;;;;;131.00;111.25;;;;;-2.59;85.62;100911.34;3726884;38;17686;-69
2021/01/22 06:16:19;;;;;;;;;144.25;114.25;;;;;-2.37;85.22;100943.59;3727805;37;17700;-67
2021/01/22 06:19:07;;;;;;;;;141.00;112.75;;;;;-2.30;85.51;100962.63;3726615;37;17686;-67
2021/01/22 06:21:40;;;;;;;;;124.25;101.25;;;;;-2.37;85.48;100939.16;3726403;37;17916;-66
2021/01/22 06:24:08;;;;;;;;;123.75;106.25;;;;;-2.24;85.30;100952.53;3727684;37;17685;-69
2021/01/22 06:26:39;;;;;;;;;124.75;99.00;;;;;-2.31;85.14;100931.78;3726817;37;17670;-67
2021/01/22 06:29:08;;;;;;;;;132.75;113.25;;;;;-2.39;85.41;100924.28;3726320;37;17672;-65
2021/01/22 06:31:37;;;;;;;;;135.00;114.00;;;;;-2.09;85.21;100956.06;3726320;38;17685;-67
2021/01/22 06:34:05;;;;;;;;;147.25;123.25;;;;;-1.96;85.64;100964.94;3726382;37;17660;-68
2021/01/22 06:36:32;;;;;;;;;119.50;107.50;;;;;-1.93;85.39;100948.84;3726313;38;17662;-70
2021/01/22 06:39:02;;;;;;;;;140.00;114.50;;;;;-1.89;85.18;100958.31;3726579;37;17676;-69
2021/01/22 06:41:29;;;;;;;;;150.25;124.75;;;;;-1.74;85.12;100975.94;3726535;37;17681;-69
2021/01/22 06:44:00;;;;;;;;;164.25;130.00;;;;;-1.70;85.34;100968.66;3726983;38;17667;-72
2021/01/22 06:46:29;;;;;;;;;167.25;125.75;;;;;-1.64;85.30;100965.63;3726893;38;17676;-71
2021/01/22 06:49:00;;;;;;;;;162.00;140.25;;;;;-1.76;85.42;100934.53;3726507;37;17656;-70
2021/01/22 06:51:33;;;;;;;;;182.50;159.00;;;;;-1.54;85.48;100936.66;3726853;38;17647;-70
2021/01/22 06:54:16;;;;;;;;;182.50;142.00;;;;;-1.21;85.28;100949.59;3727094;38;17637;-70
2021/01/22 06:57:12;;;;;;;;;166.00;137.50;;;;;-1.06;85.38;100964.56;3726393;37;17638;-74
2021/01/22 06:59:39;;;;;;;;;150.50;126.25;;;;;-0.82;85.39;100943.47;3726615;37;17613;-73
2021/01/22 07:02:38;;;;;;;;;139.25;108.50;;;;;-0.62;85.49;100944.81;3726414;37;17638;-70
2021/01/22 07:05:51;;;;;;;;;158.00;128.25;;;;;-0.42;85.60;100947.81;3725771;38;17612;-64
2021/01/22 07:08:17;;;;;;;;;108.00;89.50;;;;;-0.18;85.26;100950.59;3725895;37;17666;-64
2021/01/22 07:11:02;;;;;;;;;146.75;119.25;;;;;-0.09;84.87;100949.13;3725271;38;17638;-64
2021/01/22 07:13:38;;;;;;;;;154.50;131.25;;;;;0.05;85.09;100951.66;3725648;37;17630;-67
2021/01/22 07:16:10;;;;;;;;;123.75;101.75;;;;;0.11;85.06;100937.94;3726386;37;17633;-69
2021/01/22 07:18:43;;;;;;;;;95.75;76.50;;;;;-0.03;84.97;100879.53;3726136;37;17615;-69
2021/01/22 07:21:23;;;;;;;;;137.75;112.50;;;;;0.52;84.93;100942.97;3726258;38;17604;-68
2021/01/22 07:24:01;;;;;;;;;108.25;94.75;;;;;0.64;84.67;100947.41;3726399;37;17604;-67
2021/01/22 07:26:40;;;;;;;;;75.50;57.75;;;;;0.86;84.96;100948.53;3725928;37;17617;-70
2021/01/22 07:29:33;;;;;;;;;76.25;59.25;;;;;1.11;84.99;100950.22;3726404;37;19852;-69
2021/01/22 07:32:04;;;;;;;;;79.50;61.00;;;;;1.13;84.44;100940.28;3726012;37;19820;-68
2021/01/22 07:34:52;;;;;;;;;89.50;67.25;;;;;1.40;84.40;100953.38;3726366;37;19853;-70
2021/01/22 07:37:25;;;;;;;;;85.50;62.25;;;;;1.52;83.81;100957.81;3725020;38;19863;-69
2021/01/22 07:39:54;;;;;;;;;74.00;57.25;;;;;1.67;83.74;100952.13;3725780;38;19826;-67
2021/01/22 07:42:38;;;;;;;;;63.00;52.75;;;;;1.78;83.53;100953.97;3725976;37;19820;-67
2021/01/22 07:45:13;;;;;;;;;67.25;52.25;;;;;1.83;83.44;100938.47;3726114;38;19824;-67
2021/01/22 07:47:42;;;;;;;;;61.50;49.00;;;;;1.95;83.11;100932.19;3726116;37;19823;-66
2021/01/22 07:50:11;;;;;;;;;65.25;52.75;;;;;1.73;82.69;100881.44;3725959;38;19837;-67
2021/01/22 07:52:45;;;;;;;;;55.25;41.25;;;;;1.82;81.98;100891.41;3726013;37;19795;-69
2021/01/22 07:55:22;;;;;;;;;55.75;43.75;;;;;2.19;82.41;100944.56;3726034;37;19834;-70
2021/01/22 07:58:08;;;;;;;;;61.50;48.25;;;;;1.83;82.19;100882.44;3726285;38;19789;-72
2021/01/22 08:00:41;;;;;;;;;68.25;49.25;;;;;2.15;81.43;100938.63;3727878;38;19774;-69
2021/01/22 08:03:09;;;;;;;;;61.75;47.25;;;;;2.23;81.63;100946.03;3725713;37;19811;-70
2021/01/22 08:05:37;;;;;;;;;63.25;49.25;;;;;2.37;81.67;100929.75;3726234;38;19789;-70
2021/01/22 08:08:25;;;;;;;;;56.75;48.00;;;;;2.43;81.78;100877.69;3726031;38;19811;-68
2021/01/22 08:10:51;;;;;;;;;63.50;48.00;;;;;2.92;80.86;100926.16;3726124;38;19779;-69
2021/01/22 08:13:17;;;;;;;;;62.00;48.00;;;;;3.12;80.41;100923.66;3726035;38;19800;-70
2021/01/22 08:15:47;;;;;;;;;56.50;45.50;;;;;3.22;79.98;100914.72;3726218;38;19795;-69
2021/01/22 08:18:14;;;;;;;;;52.75;42.75;;;;;3.45;79.79;100920.84;3726011;38;20760;-68
2021/01/22 08:20:51;;;;;;;;;60.00;48.00;;;;;3.48;79.72;100907.19;3726002;37;20929;-65
2021/01/22 08:23:18;;;;;;;;;52.50;43.00;;;;;3.66;78.82;100940.41;3726275;37;19771;-70
2021/01/22 08:25:46;;;;;;;;;53.75;42.00;;;;;3.66;77.58;100940.41;3725910;38;19779;-69
2021/01/22 08:28:13;;;;;;;;;54.75;43.75;;;;;3.62;77.95;100930.12;3726171;38;19768;-70
2021/01/22 08:30:40;;;;;;;;;57.25;45.25;;;;;3.37;77.43;100885.84;3725991;38;20743;-68
2021/01/22 08:33:07;;;;;;;;;50.50;41.50;;;;;3.67;76.50;100939.44;3725751;38;19760;-70
2021/01/22 08:35:34;;;;;;;;;60.00;47.75;;;;;3.62;76.59;100925.63;3726131;38;20747;-67
2021/01/22 08:38:01;;;;;;;;;59.00;46.00;;;;;3.97;76.66;100935.13;3726097;37;20894;-69
2021/01/22 08:40:40;;;;;;;;;61.25;48.00;;;;;3.96;76.47;100923.56;3725989;38;20775;-68
2021/01/22 08:43:09;;;;;;;;;58.00;45.75;;;;;3.66;75.72;100894.91;3725859;38;20735;-69
2021/01/22 08:45:37;;;;;;;;;58.00;46.00;;;;;3.96;75.52;100920.03;3726213;37;20759;-69
2021/01/22 08:48:03;;;;;;;;;68.75;51.50;;;;;4.02;75.57;100919.50;3726309;38;20729;-68
2021/01/22 08:50:30;;;;;;;;;58.75;43.00;;;;;3.99;75.60;100911.75;3726072;37;20768;-68
2021/01/22 08:53:25;;;;;;;;;57.75;47.50;;;;;0.99;75.89;100406.56;3725908;37;20748;-68
2021/01/22 08:56:14;;;;;;;;;56.50;45.75;;;;;1.34;75.70;100429.41;3726360;38;20720;-68
2021/01/22 08:59:18;;;;;;;;;59.75;47.50;;;;;4.40;75.87;100901.91;3726191;37;20695;-67
2021/01/22 09:02:10;;;;;;;;;56.25;45.25;;;;;4.01;74.91;100840.16;3726268;38;20680;-68
2021/01/22 09:04:36;;;;;;;;;56.75;43.50;;;;;3.95;74.62;100840.69;3726006;38;20726;-70
2021/01/22 09:07:05;;;;;;;;;54.50;45.75;;;;;4.32;75.00;100882.00;3726070;38;20730;-68
2021/01/22 09:09:49;;;;;;;;;59.00;47.00;;;;;4.42;74.96;100875.81;3725938;37;20685;-72
2021/01/22 09:12:26;;;;;;;;;52.50;41.25;;;;;4.50;74.68;100870.63;3726052;37;20701;-69
2021/01/22 09:15:06;;;;;;;;;54.00;43.00;;;;;4.55;74.54;100858.50;3726368;37;20709;-68
2021/01/22 09:17:44;;;;;;;;;64.75;46.50;;;;;4.65;74.42;100859.38;3726184;37;20766;-71
2021/01/22 09:20:34;;;;;;;;;57.25;45.50;;;;;4.66;74.05;100852.19;3726428;38;20709;-70
2021/01/22 09:23:04;;;;;;;;;56.25;45.25;;;;;4.55;73.91;100834.38;3726204;37;20664;-70
2021/01/22 09:25:31;;;;;;;;;62.25;46.00;;;;;4.69;73.34;100846.53;3726308;38;20701;-70
2021/01/22 09:27:57;;;;;;;;;56.25;43.50;;;;;4.59;73.22;100819.72;3726271;37;20707;-68
2021/01/22 09:30:26;;;;;;;;;60.25;47.00;;;;;4.47;72.93;100820.81;3726589;37;20695;-72
2021/01/22 09:32:57;;;;;;;;;58.25;47.25;;;;;4.50;72.92;100827.75;3726469;37;20697;-68
2021/01/22 09:35:27;;;;;;;;;61.00;49.50;;;;;4.49;72.86;100810.81;3726441;37;20690;-69
2021/01/22 09:37:54;;;;;;;;;61.25;48.25;;;;;4.57;72.43;100808.31;3725975;37;20669;-71
2021/01/22 09:40:21;;;;;;;;;61.00;47.25;;;;;4.49;72.26;100804.62;3726238;37;20650;-70
2021/01/22 09:42:47;;;;;;;;;49.25;42.25;;;;;4.68;72.72;100827.94;3726240;38;20670;-68
2021/01/22 09:45:15;;;;;;;;;56.00;44.25;;;;;4.56;72.50;100798.56;3726543;37;20657;-69
2021/01/22 09:47:42;;;;;;;;;58.75;47.50;;;;;4.94;72.45;100819.19;3726089;37;20676;-69
2021/01/22 09:50:10;;;;;;;;;64.50;48.50;;;;;5.07;72.20;100818.91;3726134;38;20725;-69
2021/01/22 09:52:38;;;;;;;;;61.00;47.50;;;;;5.05;71.91;100811.97;3725888;37;20677;-68
2021/01/22 09:55:18;;;;;;;;;56.00;45.25;;;;;4.94;71.58;100807.59;3725986;37;20646;-66
2021/01/22 09:57:45;;;;;;;;;55.25;45.75;;;;;4.95;71.69;100802.09;3725714;37;20643;-68
2021/01/22 10:00:16;;;;;;;;;60.75;47.50;;;;;5.06;72.04;100803.78;3726440;38;20662;-66
2021/01/22 10:02:44;;;;;;;;;54.25;43.25;;;;;5.14;71.77;100801.25;3726023;37;20646;-66
2021/01/22 10:05:11;;;;;;;;;60.00;47.25;;;;;5.14;71.97;100787.84;3725840;38;20668;-66
2021/01/22 10:07:38;;;;;;;;;57.75;45.75;;;;;5.18;71.54;100788.38;3725697;37;20654;-67
2021/01/22 10:10:05;;;;;;;;;54.75;45.50;;;;;5.17;71.42;100784.00;3725973;37;20650;-66
2021/01/22 10:12:32;;;;;;;;;59.25;48.75;;;;;5.33;70.86;100792.28;3725800;38;20653;-66
2021/01/22 10:14:58;;;;;;;;;54.25;44.00;;;;;5.44;70.78;100775.19;3726046;37;20623;-67
2021/01/22 10:17:24;;;;;;;;;56.00;45.25;;;;;5.47;70.77;100770.38;3726102;38;20642;-68
2021/01/22 10:19:51;;;;;;;;;54.25;44.25;;;;;5.57;70.86;100765.81;3726145;38;20628;-67
2021/01/22 10:22:18;;;;;;;;;58.75;46.25;;;;;5.72;70.97;100754.63;3726321;37;20609;-67
2021/01/22 10:24:44;;;;;;;;;58.00;45.75;;;;;5.81;70.30;100751.00;3726272;38;20637;-67
2021/01/22 10:27:10;;;;;;;;;60.00;46.00;;;;;5.88;69.43;100722.56;3726246;38;20595;-68
2021/01/22 10:29:37;;;;;;;;;54.00;44.50;;;;;5.96;69.18;100720.88;3726499;38;20611;-64
2021/01/22 10:32:04;;;;;;;;;58.00;46.75;;;;;6.08;68.51;100739.47;3726140;38;20593;-63
2021/01/22 10:34:30;;;;;;;;;59.50;48.50;;;;;6.04;68.35;100716.59;3725623;38;20612;-64
2021/01/22 10:36:56;;;;;;;;;57.00;46.25;;;;;5.85;68.16;100685.25;3726120;37;20624;-63
2021/01/22 10:39:22;;;;;;;;;55.25;41.50;;;;;6.00;68.00;100699.91;3725687;37;20594;-62
2021/01/22 10:41:49;;;;;;;;;57.25;45.00;;;;;6.02;68.07;100689.03;3725798;38;20619;-66
2021/01/22 10:44:15;;;;;;;;;58.00;46.00;;;;;6.14;68.21;100691.34;3726102;37;20595;-64
2021/01/22 10:46:42;;;;;;;;;59.00;47.00;;;;;6.27;67.76;100693.63;3725931;38;20590;-64
2021/01/22 10:49:08;;;;;;;;;57.00;45.25;;;;;6.17;68.03;100674.06;3725697;38;20595;-64
2021/01/22 10:51:34;;;;;;;;;58.50;44.50;;;;;6.41;67.79;100690.41;3725853;38;20573;-63
2021/01/22 10:54:01;;;;;;;;;60.50;47.00;;;;;6.45;67.73;100674.81;3725871;38;18338;-64
2021/01/22 10:56:27;;;;;;;;;56.25;44.50;;;;;6.58;67.78;100675.28;3726039;37;20556;-64
2021/01/22 10:58:53;;;;;;;;;61.00;45.75;;;;;6.64;67.68;100658.53;3726085;38;20570;-65
2021/01/22 11:01:19;;;;;;;;;57.00;45.00;;;;;6.72;66.74;100658.59;3726132;38;20586;-63
2021/01/22 11:03:46;;;;;;;;;58.75;46.25;;;;;6.83;66.51;100650.25;3726144;38;20564;-65
2021/01/22 11:06:12;;;;;;;;;63.75;49.25;;;;;6.90;66.63;100639.72;3725939;37;20565;-66
2021/01/22 11:08:38;;;;;;;;;54.50;45.00;;;;;7.09;65.88;100655.66;3725858;37;20579;-66
2021/01/22 11:11:04;;;;;;;;;60.50;47.25;;;;;6.90;65.66;100634.31;3726082;37;20651;-63
2021/01/22 11:13:31;;;;;;;;;64.00;49.00;;;;;6.98;66.01;100650.53;3725761;37;20570;-65
2021/01/22 11:15:57;;;;;;;;;60.50;46.50;;;;;6.90;65.83;100642.41;3725964;37;20537;-63
2021/01/22 11:18:23;;;;;;;;;58.75;45.75;;;;;7.01;65.44;100643.97;3726209;37;20536;-65
2021/01/22 11:20:50;;;;;;;;;56.25;45.50;;;;;7.03;65.61;100628.53;3726063;37;20543;-64
2021/01/22 11:23:16;;;;;;;;;54.25;43.50;;;;;7.11;65.29;100636.66;3725791;38;20536;-63